Aviation Digital Data Service (ADDS)

Output produced by TAFs form (0147 UTC 22 November 2017)
found at http://www.aviationweather.gov/adds/tafs/
 
METAR text: RJNG 220041Z 06004KT 9999 FEW030 SCT040 BKN230 10/03 Q1023 RMK 1CU030 3SC040 A3023
Conditions at: RJNG (GIFU (JASDF) , JP) observed 0041 UTC 22 November 2017
Temperature: 10.0°C (50°F)
Dewpoint: 3.0°C (37°F) [RH = 62%]
Pressure (altimeter): 30.21 inches Hg (1023.0 mb)
Winds: from the ENE (60 degrees) at 5 MPH (4 knots; 2.1 m/s)
Visibility: 6 or more miles (10+ km)
Ceiling: 23000 feet AGL
Clouds: few clouds at 3000 feet AGL
scattered clouds at 4000 feet AGL
broken clouds at 23000 feet AGL
Weather: no significant weather observed at this time